Hamtramck, Michigan
Current Conditions -  °F | °C
As of 7:53 PM on Sunday 23 Nov 2014 (Local Time) from KDET Reporting Station
Light Rain Light Rain  
Wind Chill: 52°   Ceiling: 8500
Heat Index: 52°   Visibility: 10mi
Dew Point: 44°   Wind: 8mph
Humidity: 74%   Direction: 130°SE
Pressure: 29.55"   Gusts: NA
Location:  42.4°N, 83.05°W
Report Text: KDET 240053Z 13007KT 10SM -RA FEW070 OVC085 11/07 A2955 RMK AO2 SLP009 P0001 T01110067
Loading
Personal Weather Stations






























Interactive Weather Map New forecast layout! Learn more

10-Day Weather Forecast

Advertisements
Track Severe Weather on mobile